createdAt,value
2017-04-26T03:01:16.139Z,62.81
2017-04-26T03:01:41.715Z,62.71
2017-04-26T03:02:07.275Z,63.32
2017-04-26T03:02:32.828Z,63.38
2017-04-26T03:02:58.385Z,62.81
2017-04-26T03:03:23.949Z,63.28
2017-04-26T03:03:49.542Z,63.57
2017-04-26T03:04:15.095Z,62.81
2017-04-26T03:04:40.658Z,63.28
2017-04-26T03:05:06.206Z,63.57
2017-04-26T03:05:31.873Z,63.38
2017-04-26T03:05:57.430Z,62.81
2017-04-26T03:06:22.974Z,62.71
2017-04-26T03:06:48.535Z,62.9
2017-04-26T03:07:14.134Z,62.81
2017-04-26T03:07:39.713Z,62.71
2017-04-26T03:08:05.279Z,63.09
2017-04-26T03:08:30.916Z,63.12
2017-04-26T03:08:56.515Z,63.09
2017-04-26T03:09:22.092Z,62.81
2017-04-26T03:10:35.891Z,63.19
2017-04-26T03:11:01.455Z,62.93
2017-04-26T03:11:27.131Z,63.09
2017-04-26T03:11:52.705Z,62.99
2017-04-26T03:12:18.275Z,63.09
2017-04-26T03:12:43.840Z,63.09
2017-04-26T03:13:09.405Z,62.9
2017-04-26T03:13:34.970Z,62.9
2017-04-26T03:14:00.512Z,62.99
2017-04-26T03:14:26.073Z,63.09
2017-04-26T03:14:51.678Z,63.09
2017-04-26T03:15:17.279Z,62.9
2017-04-26T03:15:42.840Z,62.9
2017-04-26T03:16:08.422Z,62.99
2017-04-26T03:16:33.984Z,62.99
2017-04-26T03:16:59.605Z,63.19
2017-04-26T03:17:25.172Z,63.09
2017-04-26T03:17:50.714Z,63.19
2017-04-26T03:18:16.324Z,63.09
2017-04-26T03:18:41.876Z,62.99
2017-04-26T03:19:07.498Z,63.19
2017-04-26T03:19:33.051Z,63.19
2017-04-26T03:19:58.613Z,63.09
2017-04-26T03:20:24.157Z,62.9
2017-04-26T03:20:49.724Z,63.09
2017-04-26T03:21:15.271Z,63.19
2017-04-26T03:21:40.830Z,63.09
2017-04-26T03:22:06.391Z,63.09
2017-04-26T03:22:31.965Z,63.19
2017-04-26T03:22:57.520Z,63.09
2017-04-26T03:23:23.082Z,62.81
2017-04-26T03:23:48.653Z,62.71
2017-04-26T03:24:14.206Z,62.99
2017-04-26T03:24:39.752Z,62.9
2017-04-26T03:25:05.410Z,62.61
2017-04-26T03:25:30.959Z,62.61
2017-04-26T03:25:56.505Z,62.9
2017-04-26T03:26:22.086Z,62.99
2017-04-26T03:26:47.631Z,62.81
2017-04-26T03:27:13.184Z,62.81
2017-04-26T03:27:38.737Z,62.99
2017-04-26T03:28:04.283Z,62.71
2017-04-26T03:28:30.024Z,62.81
2017-04-26T03:28:55.572Z,62.9
2017-04-26T03:29:21.111Z,62.81
2017-04-26T03:29:46.651Z,62.71
2017-04-26T03:30:12.220Z,62.9
2017-04-26T03:30:37.777Z,62.81
2017-04-26T03:31:03.384Z,62.81
2017-04-26T03:31:28.952Z,63.09
2017-04-26T03:31:54.531Z,62.81
2017-04-26T03:32:20.101Z,63.09
2017-04-26T03:32:45.666Z,62.9
2017-04-26T03:33:11.234Z,62.9
2017-04-26T03:33:36.784Z,62.81
2017-04-26T03:34:02.354Z,62.99
2017-04-26T03:34:27.910Z,62.81
2017-04-26T03:34:53.471Z,62.61
2017-04-26T03:35:19.031Z,62.9
2017-04-26T03:35:44.571Z,62.71
2017-04-26T03:36:10.131Z,63.09
2017-04-26T03:36:35.682Z,62.71
2017-04-26T03:37:01.325Z,62.9
2017-04-26T03:37:26.885Z,63.19
2017-04-26T03:37:52.409Z,62.71
2017-04-26T03:38:17.962Z,62.71
2017-04-26T03:38:43.548Z,62.71
2017-04-26T03:39:09.105Z,62.81
2017-04-26T03:39:34.673Z,62.99
2017-04-26T03:40:00.242Z,63.19
2017-04-26T03:40:25.789Z,63.09
2017-04-26T03:40:51.352Z,63.19
2017-04-26T03:41:16.909Z,63.09
2017-04-26T03:41:42.468Z,62.9
2017-04-26T03:42:08.007Z,63.09
2017-04-26T03:42:33.561Z,62.81
2017-04-26T03:42:59.122Z,62.99
2017-04-26T03:43:24.733Z,63.09
2017-04-26T03:43:50.275Z,63.09
2017-04-26T03:44:15.813Z,62.81
2017-04-26T03:44:41.352Z,62.9
2017-04-26T03:45:06.902Z,63.28
2017-04-26T03:45:32.550Z,63.48
2017-04-26T03:45:58.100Z,62.9
2017-04-26T03:46:23.661Z,63.28
2017-04-26T03:46:49.210Z,63.38
2017-04-26T03:47:14.751Z,63.28
2017-04-26T03:47:40.320Z,63.28
2017-04-26T03:48:05.980Z,63.09
2017-04-26T03:49:09.421Z,63.09
2017-04-26T03:49:34.966Z,62.99
2017-04-26T03:50:00.514Z,63.28
2017-04-26T03:50:26.059Z,63.28
2017-04-26T03:50:51.608Z,63.19
2017-04-26T03:51:17.160Z,63.19
2017-04-26T03:51:42.729Z,63.19
2017-04-26T03:52:08.301Z,63.19
2017-04-26T03:52:33.870Z,63.28
2017-04-26T03:52:59.413Z,63.28
2017-04-26T03:53:24.968Z,63.28
2017-04-26T03:53:50.523Z,63.28
2017-04-26T03:54:16.080Z,63.19
2017-04-26T03:54:41.661Z,63.19
2017-04-26T03:55:07.250Z,63.28
2017-04-26T03:55:32.868Z,63.28
2017-04-26T03:55:58.420Z,63.19
2017-04-26T03:56:23.986Z,63.28
2017-04-26T03:56:49.553Z,63.28
2017-04-26T03:57:15.103Z,63.28
2017-04-26T03:57:40.673Z,63.19
2017-04-26T03:58:06.233Z,63.28
2017-04-26T03:58:31.790Z,63.28
2017-04-26T03:58:57.424Z,63.28
2017-04-26T03:59:22.976Z,63.19
2017-04-26T03:59:48.536Z,63.28
2017-04-26T04:00:14.113Z,63.09
2017-04-26T04:00:39.694Z,63.28
2017-04-26T04:01:05.244Z,63.28
2017-04-26T04:01:30.804Z,63.19
2017-04-26T04:01:56.383Z,63.28
2017-04-26T04:02:21.911Z,63.19
2017-04-26T04:02:47.464Z,63.28
2017-04-26T04:03:13.001Z,63.38
2017-04-26T04:03:38.571Z,63.19
2017-04-26T04:04:04.133Z,63.38
2017-04-26T04:04:29.702Z,62.99
2017-04-26T04:04:55.281Z,63.19
2017-04-26T04:05:20.900Z,63.38
2017-04-26T04:05:46.462Z,63.28
2017-04-26T04:06:12.188Z,63.48
2017-04-26T04:06:37.733Z,63.57
2017-04-26T04:07:03.292Z,63.48
2017-04-26T04:07:28.863Z,63.48
2017-04-26T04:07:54.421Z,63.76
2017-04-26T04:08:19.984Z,63.38
2017-04-26T04:08:45.521Z,63.38
2017-04-26T04:09:11.074Z,63.38
2017-04-26T04:09:36.694Z,63.19
2017-04-26T04:10:02.231Z,63.19
2017-04-26T04:10:27.773Z,63.19
2017-04-26T04:10:53.305Z,63.19
2017-04-26T04:11:18.848Z,63.28
2017-04-26T04:11:44.395Z,63.38
2017-04-26T04:12:09.928Z,63.38
2017-04-26T04:12:35.471Z,63.38
2017-04-26T04:13:01.019Z,63.19
2017-04-26T04:13:26.594Z,63.48
2017-04-26T04:13:52.136Z,63.57
2017-04-26T04:14:17.693Z,63.48
2017-04-26T04:14:43.244Z,63.48
2017-04-26T04:15:08.807Z,63.76
2017-04-26T04:15:34.441Z,63.76
2017-04-26T04:16:00.061Z,63.28
2017-04-26T04:16:25.638Z,63.48
2017-04-26T04:16:51.208Z,63.48
2017-04-26T04:17:16.759Z,63.57
2017-04-26T04:17:42.322Z,63.38
2017-04-26T04:18:08.017Z,63.48
2017-04-26T04:18:33.642Z,63.28
2017-04-26T04:18:59.199Z,63.48
2017-04-26T04:19:24.757Z,63.48
2017-04-26T04:19:50.321Z,63.48
2017-04-26T04:20:15.858Z,63.57
2017-04-26T04:20:41.409Z,63.67
2017-04-26T04:21:06.952Z,63.48
2017-04-26T04:21:32.496Z,63.57
2017-04-26T04:21:58.061Z,63.57
2017-04-26T04:22:23.623Z,63.57
2017-04-26T04:22:49.192Z,63.57
2017-04-26T04:23:14.824Z,63.28
2017-04-26T04:23:40.388Z,63.48
2017-04-26T04:24:05.958Z,63.48
2017-04-26T04:24:31.593Z,63.67
2017-04-26T04:24:57.142Z,63.38
2017-04-26T04:25:22.692Z,63.67
2017-04-26T04:25:48.391Z,63.48
2017-04-26T04:26:13.958Z,63.57
2017-04-26T04:26:39.512Z,63.48
2017-04-26T04:27:05.093Z,63.38
2017-04-26T04:27:30.659Z,63.48
2017-04-26T04:27:56.216Z,63.48
2017-04-26T04:28:21.771Z,63.57
2017-04-26T04:28:47.316Z,63.48
2017-04-26T04:29:12.881Z,63.67
2017-04-26T04:29:38.561Z,63.48
2017-04-26T04:30:04.107Z,63.28
2017-04-26T04:30:29.689Z,63.38
2017-04-26T04:30:55.253Z,63.48
2017-04-26T04:31:20.808Z,63.57
2017-04-26T04:31:46.380Z,63.38
2017-04-26T04:32:11.952Z,63.38
2017-04-26T04:32:37.517Z,63.48
2017-04-26T04:33:03.124Z,63.48
2017-04-26T04:33:28.739Z,63.48
2017-04-26T04:33:54.296Z,63.38
2017-04-26T04:34:19.878Z,63.48
2017-04-26T04:34:45.442Z,63.76
2017-04-26T04:35:11.001Z,63.48
2017-04-26T04:35:36.564Z,63.57
2017-04-26T04:36:02.118Z,63.48
2017-04-26T04:36:27.669Z,64.15
2017-04-26T04:36:53.222Z,63.86
2017-04-26T04:37:18.793Z,63.96
2017-04-26T04:37:44.373Z,64.15
2017-04-26T04:38:10.690Z,64.05
2017-04-26T04:38:36.241Z,64.25
2017-04-26T04:39:01.807Z,64.25
2017-04-26T04:39:27.381Z,63.86
2017-04-26T04:39:52.931Z,63.57
2017-04-26T04:40:18.492Z,63.48
2017-04-26T04:40:44.043Z,63.86
2017-04-26T04:41:09.602Z,63.28
2017-04-26T04:41:35.196Z,63.57
2017-04-26T04:42:00.751Z,63.96
2017-04-26T04:42:26.311Z,63.76
2017-04-26T04:42:51.866Z,64.05
2017-04-26T04:43:17.605Z,63.96
2017-04-26T04:43:43.180Z,63.67
2017-04-26T04:44:08.749Z,63.57
2017-04-26T04:44:34.299Z,63.28
2017-04-26T04:44:59.869Z,63.57
2017-04-26T04:45:25.493Z,63.67
2017-04-26T04:45:51.062Z,64.05
2017-04-26T04:46:16.723Z,63.96
2017-04-26T04:46:42.284Z,63.57
2017-04-26T04:47:07.951Z,63.28
2017-04-26T04:47:33.502Z,63.67
2017-04-26T04:47:59.072Z,63.28
2017-04-26T04:48:24.625Z,63.57
2017-04-26T04:48:50.192Z,63.38
2017-04-26T04:49:15.761Z,63.48
2017-04-26T04:49:41.313Z,63.48
2017-04-26T04:50:06.875Z,63.19
2017-04-26T04:50:32.434Z,63.28
2017-04-26T04:50:58.174Z,63.48
2017-04-26T04:51:23.759Z,63.48
2017-04-26T04:51:49.343Z,63.48
2017-04-26T04:52:15.023Z,63.57
2017-04-26T04:52:40.662Z,64.15
2017-04-26T04:53:06.335Z,63.76
2017-04-26T04:53:31.903Z,63.67
2017-04-26T04:53:57.474Z,63.57
2017-04-26T04:54:23.041Z,63.57
2017-04-26T04:54:48.603Z,63.67
2017-04-26T04:55:14.222Z,63.48
2017-04-26T04:55:39.872Z,63.67
2017-04-26T04:56:05.454Z,63.48
2017-04-26T04:56:31.025Z,63.48
2017-04-26T04:56:56.653Z,63.38
2017-04-26T04:57:22.171Z,63.48
2017-04-26T04:57:47.728Z,63.67
2017-04-26T04:58:13.303Z,63.48
2017-04-26T04:58:38.856Z,63.38
2017-04-26T04:59:04.433Z,63.38
2017-04-26T04:59:30.000Z,63.38
2017-04-26T04:59:55.561Z,63.38
2017-04-26T05:00:21.140Z,63.28
2017-04-26T05:00:46.744Z,63.76
2017-04-26T05:01:12.312Z,63.57
2017-04-26T05:01:37.889Z,63.67
2017-04-26T05:02:03.473Z,63.57
2017-04-26T05:02:29.064Z,63.38
2017-04-26T05:02:54.653Z,63.38
2017-04-26T05:03:20.233Z,63.48
2017-04-26T05:03:45.911Z,63.38
2017-04-26T05:04:11.476Z,63.48
2017-04-26T05:04:37.182Z,63.67
2017-04-26T05:05:02.740Z,63.48
2017-04-26T05:05:28.303Z,63.48
2017-04-26T05:05:53.982Z,63.38
2017-04-26T05:06:19.607Z,63.67
2017-04-26T05:06:45.171Z,63.19
2017-04-26T05:07:10.733Z,63.76
2017-04-26T05:07:36.393Z,63.86
2017-04-26T05:08:01.964Z,63.48
2017-04-26T05:08:27.520Z,63.38
2017-04-26T05:08:53.111Z,63.38
2017-04-26T05:09:51.667Z,62.99
2017-04-26T05:10:17.223Z,63.19
2017-04-26T05:10:42.798Z,63.28
2017-04-26T05:11:08.394Z,63.09
2017-04-26T05:11:33.944Z,63.28
2017-04-26T05:11:59.503Z,63.28
2017-04-26T05:12:25.074Z,63.28
2017-04-26T05:12:50.644Z,63.19
2017-04-26T05:13:16.210Z,63.28
2017-04-26T05:13:41.785Z,62.99
2017-04-26T05:14:07.338Z,62.99
2017-04-26T05:14:32.902Z,63.28
2017-04-26T05:14:58.448Z,63.28
2017-04-26T05:15:24.015Z,63.28
2017-04-26T05:15:49.673Z,63.38
2017-04-26T05:16:15.243Z,63.48
2017-04-26T05:16:40.811Z,63.38
2017-04-26T05:17:06.397Z,63.57
2017-04-26T05:17:31.978Z,63.38
2017-04-26T05:17:57.554Z,63.28
2017-04-26T05:18:23.140Z,62.71
2017-04-26T05:18:48.704Z,63.09
2017-04-26T05:19:15.024Z,62.9
2017-04-26T05:19:40.593Z,62.9
2017-04-26T05:20:06.257Z,62.9
2017-04-26T05:20:31.829Z,62.99
2017-04-26T05:20:57.400Z,62.9
2017-04-26T05:21:22.951Z,63.09
2017-04-26T05:21:48.498Z,63.09
2017-04-26T05:22:14.136Z,63.09
2017-04-26T05:22:39.761Z,63.19
2017-04-26T05:23:05.352Z,63.19
2017-04-26T05:23:30.937Z,63.09
2017-04-26T05:23:56.478Z,62.99
2017-04-26T05:24:22.103Z,63.19
2017-04-26T05:24:47.661Z,62.71
2017-04-26T05:25:13.226Z,62.99
2017-04-26T05:25:38.922Z,62.61
2017-04-26T05:26:04.503Z,62.81
2017-04-26T05:26:30.093Z,62.81
2017-04-26T05:26:55.662Z,62.81
2017-04-26T05:27:21.209Z,62.9
2017-04-26T05:27:46.767Z,62.81
2017-04-26T05:28:12.330Z,62.9
2017-04-26T05:28:37.889Z,62.81
2017-04-26T05:29:41.504Z,62.81
2017-04-26T05:30:07.085Z,62.81
2017-04-26T05:30:32.632Z,62.9
2017-04-26T05:30:58.182Z,62.81
2017-04-26T05:31:23.744Z,62.81
2017-04-26T05:31:49.324Z,62.81
2017-04-26T05:32:14.961Z,62.81
2017-04-26T05:32:40.514Z,62.81
2017-04-26T05:33:06.104Z,62.81
2017-04-26T05:33:31.658Z,62.9
2017-04-26T05:33:57.272Z,62.81
2017-04-26T05:34:22.823Z,62.81
2017-04-26T05:34:48.453Z,62.81
2017-04-26T05:35:14.006Z,62.9
2017-04-26T05:35:39.571Z,62.9
2017-04-26T05:36:05.141Z,62.9
2017-04-26T05:36:30.711Z,62.99
2017-04-26T05:36:56.261Z,62.9
2017-04-26T05:37:21.884Z,62.99
2017-04-26T05:37:47.442Z,62.71
2017-04-26T05:38:12.999Z,62.99
2017-04-26T05:38:38.554Z,62.81
2017-04-26T05:39:04.138Z,62.81
2017-04-26T05:39:29.690Z,62.9
2017-04-26T05:39:55.295Z,62.9
2017-04-26T05:40:20.880Z,62.9
2017-04-26T05:40:46.458Z,62.9
2017-04-26T05:41:12.022Z,62.81
2017-04-26T05:41:37.579Z,62.99
2017-04-26T05:42:03.281Z,62.9
2017-04-26T05:42:28.856Z,62.9
2017-04-26T05:42:54.476Z,62.81
2017-04-26T05:43:20.143Z,62.9
2017-04-26T05:43:45.700Z,62.71
2017-04-26T05:44:11.296Z,62.9
2017-04-26T05:44:37.007Z,62.9
2017-04-26T05:45:02.543Z,62.99
2017-04-26T05:45:28.090Z,62.99
2017-04-26T05:45:53.650Z,63.09
2017-04-26T05:46:19.232Z,62.61
2017-04-26T05:46:44.804Z,62.99
2017-04-26T05:47:10.371Z,62.81
2017-04-26T05:47:35.940Z,62.61
2017-04-26T05:48:01.507Z,62.61
2017-04-26T05:48:27.051Z,62.99
2017-04-26T05:48:52.660Z,62.71
2017-04-26T05:49:18.254Z,62.81
2017-04-26T05:50:26.956Z,62.61
2017-04-26T05:50:52.599Z,62.99
2017-04-26T05:51:45.634Z,63.09
2017-04-26T05:52:11.204Z,63.09
2017-04-26T05:52:36.752Z,63.09
2017-04-26T05:53:02.306Z,63.19
2017-04-26T05:53:27.858Z,63.09
2017-04-26T05:53:53.402Z,63.09
2017-04-26T05:54:18.962Z,62.99
2017-04-26T05:54:44.526Z,62.71
2017-04-26T05:55:10.143Z,63.09
2017-04-26T05:55:35.740Z,62.99
2017-04-26T05:56:01.300Z,63.09
2017-04-26T05:56:26.887Z,63.09
2017-04-26T05:56:52.576Z,62.99
2017-04-26T05:57:18.190Z,63.19
2017-04-26T05:57:43.813Z,63.19
2017-04-26T05:58:09.394Z,63.19
2017-04-26T05:58:34.950Z,63.19
2017-04-26T05:59:00.501Z,62.99
2017-04-26T05:59:26.061Z,63.09
2017-04-26T05:59:51.617Z,63.09
2017-04-26T06:00:50.021Z,63.09
2017-04-26T06:01:15.623Z,63.09
2017-04-26T06:01:41.185Z,63.19
2017-04-26T06:02:06.774Z,62.99
2017-04-26T06:02:32.420Z,63.09
2017-04-26T06:02:58.029Z,63.09
2017-04-26T06:03:23.593Z,63.09
2017-04-26T06:03:49.144Z,63.19
2017-04-26T06:04:14.815Z,62.99
2017-04-26T06:04:40.378Z,62.9
2017-04-26T06:05:05.943Z,62.71
2017-04-26T06:05:31.506Z,62.99
2017-04-26T06:05:57.068Z,63.09
2017-04-26T06:06:22.631Z,62.99
2017-04-26T06:06:48.181Z,62.99
2017-04-26T06:07:13.734Z,62.99
2017-04-26T06:07:39.415Z,63.09
2017-04-26T06:08:05.017Z,63.09
2017-04-26T06:08:30.570Z,63.09
2017-04-26T06:08:56.247Z,63.19
2017-04-26T06:09:21.801Z,63.19
2017-04-26T06:09:47.374Z,63.09
2017-04-26T06:10:12.915Z,63.09
2017-04-26T06:10:38.473Z,63.09
2017-04-26T06:11:04.070Z,63.09
2017-04-26T06:11:29.623Z,63.19
2017-04-26T06:11:55.193Z,63.09
2017-04-26T06:12:20.738Z,63.19
2017-04-26T06:12:46.395Z,63.19
2017-04-26T06:13:11.950Z,62.99
2017-04-26T06:13:37.507Z,63.09
2017-04-26T06:14:03.072Z,62.9
2017-04-26T06:14:28.662Z,62.99
2017-04-26T06:14:54.243Z,62.9
2017-04-26T06:15:19.824Z,62.9
2017-04-26T06:15:45.369Z,63.19
2017-04-26T06:16:10.942Z,63.09
2017-04-26T06:16:36.573Z,63.19
2017-04-26T06:17:02.172Z,63.09
2017-04-26T06:17:27.739Z,63.09
2017-04-26T06:17:53.302Z,62.71
2017-04-26T06:18:18.954Z,62.71
2017-04-26T06:18:44.515Z,62.61
2017-04-26T06:19:10.066Z,62.9
2017-04-26T06:19:35.629Z,62.81
2017-04-26T06:20:01.195Z,62.9
2017-04-26T06:20:26.752Z,62.9
2017-04-26T06:20:52.313Z,62.9
2017-04-26T06:21:17.868Z,62.61
2017-04-26T06:21:43.520Z,62.61
2017-04-26T06:22:09.074Z,62.71
2017-04-26T06:22:34.653Z,62.61
2017-04-26T06:23:00.347Z,62.81
2017-04-26T06:23:25.949Z,62.9
2017-04-26T06:23:51.498Z,62.9
2017-04-26T06:24:17.075Z,62.99
2017-04-26T06:24:42.639Z,63.09
2017-04-26T06:25:08.201Z,62.99
2017-04-26T06:25:33.767Z,62.99
2017-04-26T06:25:59.331Z,63.19
2017-04-26T06:26:25.014Z,63.09
2017-04-26T06:26:50.582Z,62.99
2017-04-26T06:27:16.205Z,63.09
2017-04-26T06:27:41.791Z,62.99
2017-04-26T06:28:07.335Z,63.19
2017-04-26T06:28:32.902Z,62.99
2017-04-26T06:28:58.463Z,63.09
2017-04-26T06:29:24.018Z,63.09
2017-04-26T06:29:49.711Z,63.09
2017-04-26T06:30:15.252Z,62.71
2017-04-26T06:30:40.802Z,62.99
2017-04-26T06:31:06.556Z,63.09
2017-04-26T06:31:32.091Z,62.9
2017-04-26T06:31:57.631Z,62.71
2017-04-26T06:32:23.296Z,62.99
2017-04-26T06:32:48.841Z,62.99
2017-04-26T06:33:14.392Z,62.99
2017-04-26T06:33:39.972Z,62.71
2017-04-26T06:34:05.531Z,63.28
2017-04-26T06:34:31.083Z,62.61
2017-04-26T06:34:56.719Z,62.61
2017-04-26T06:35:22.282Z,62.9
2017-04-26T06:36:31.643Z,62.99
2017-04-26T06:36:56.424Z,62.81
2017-04-26T06:37:21.987Z,62.71
2017-04-26T06:37:47.542Z,62.9
2017-04-26T06:38:13.115Z,62.81
2017-04-26T06:38:38.685Z,62.9
2017-04-26T06:39:04.353Z,62.71
2017-04-26T06:39:29.932Z,62.9
2017-04-26T06:39:55.486Z,62.81
2017-04-26T06:40:21.050Z,62.81
2017-04-26T06:40:46.643Z,62.81
2017-04-26T06:41:12.199Z,62.81
2017-04-26T06:41:37.844Z,62.99
2017-04-26T06:42:03.395Z,63.19
2017-04-26T06:42:28.960Z,62.71
2017-04-26T06:42:54.614Z,62.81
2017-04-26T06:43:20.202Z,62.99
2017-04-26T06:43:45.760Z,62.99
2017-04-26T06:44:11.363Z,62.61
2017-04-26T06:44:36.968Z,62.9
2017-04-26T06:45:02.518Z,62.61
2017-04-26T06:45:28.124Z,62.61
2017-04-26T06:45:53.715Z,62.81
2017-04-26T06:46:19.274Z,62.99
2017-04-26T06:46:44.830Z,62.71
2017-04-26T06:47:10.385Z,62.71
2017-04-26T06:47:35.947Z,62.71
2017-04-26T06:48:01.571Z,62.81
2017-04-26T06:48:27.141Z,62.9
2017-04-26T06:48:52.687Z,62.71
2017-04-26T06:49:18.241Z,62.71
2017-04-26T06:49:43.814Z,62.9
2017-04-26T06:50:09.372Z,62.9
2017-04-26T06:50:34.911Z,62.9
2017-04-26T06:51:00.466Z,62.71
2017-04-26T06:51:26.034Z,63.09
2017-04-26T06:51:51.721Z,62.71
2017-04-26T06:52:17.273Z,62.81
2017-04-26T06:52:42.853Z,62.81
2017-04-26T06:53:08.466Z,62.99
2017-04-26T06:53:34.028Z,62.71
2017-04-26T06:53:59.572Z,62.99
2017-04-26T06:54:25.200Z,62.9
2017-04-26T06:54:50.742Z,62.99
2017-04-26T06:55:16.313Z,62.99
2017-04-26T06:55:41.899Z,62.81
2017-04-26T06:56:07.460Z,62.81
2017-04-26T06:56:33.025Z,62.81
2017-04-26T06:56:58.603Z,63.09
2017-04-26T06:57:24.168Z,62.81
2017-04-26T06:57:49.911Z,62.71
2017-04-26T06:58:15.498Z,62.71
2017-04-26T06:58:41.017Z,62.9
2017-04-26T06:59:06.583Z,62.81
2017-04-26T06:59:32.119Z,62.99
2017-04-26T06:59:57.651Z,62.99
2017-04-26T07:00:23.343Z,62.99
2017-04-26T07:00:48.875Z,63.09
2017-04-26T07:01:14.531Z,62.9
2017-04-26T07:01:40.069Z,62.9
2017-04-26T07:02:05.616Z,62.99
2017-04-26T07:02:31.150Z,62.71
2017-04-26T07:02:56.710Z,62.81
2017-04-26T07:03:22.250Z,62.99
2017-04-26T07:03:47.806Z,62.71
2017-04-26T07:04:13.360Z,62.81
2017-04-26T07:04:38.901Z,62.81
2017-04-26T07:05:04.447Z,62.99
2017-04-26T07:05:30.004Z,62.71
2017-04-26T07:05:55.612Z,62.9
2017-04-26T07:07:04.230Z,62.81
2017-04-26T07:07:29.888Z,62.81
2017-04-26T07:07:55.441Z,62.9
2017-04-26T07:08:20.999Z,62.81
2017-04-26T07:08:46.573Z,62.81
2017-04-26T07:09:12.131Z,62.9
2017-04-26T07:09:37.695Z,62.9
2017-04-26T07:10:03.245Z,62.81
2017-04-26T07:10:28.806Z,62.81
2017-04-26T07:10:54.371Z,62.99
2017-04-26T07:11:19.922Z,62.81
2017-04-26T07:11:45.531Z,62.99
2017-04-26T07:12:11.095Z,62.99
2017-04-26T07:12:36.644Z,62.99
2017-04-26T07:13:02.235Z,62.99
2017-04-26T07:13:27.789Z,62.9
2017-04-26T07:13:53.334Z,62.99
2017-04-26T07:14:18.902Z,62.99
2017-04-26T07:14:44.467Z,62.9
2017-04-26T07:15:10.032Z,62.99
2017-04-26T07:15:35.660Z,62.99
2017-04-26T07:16:01.209Z,62.99
2017-04-26T07:16:26.781Z,62.81
2017-04-26T07:16:52.349Z,62.99
2017-04-26T07:17:18.058Z,62.99
2017-04-26T07:17:43.612Z,62.99
2017-04-26T07:18:09.183Z,62.99
2017-04-26T07:18:34.763Z,62.99
2017-04-26T07:19:00.302Z,62.99
2017-04-26T07:19:25.902Z,62.81
2017-04-26T07:19:51.459Z,62.71
2017-04-26T07:20:17.000Z,62.71
2017-04-26T07:20:42.633Z,62.52
2017-04-26T07:21:08.159Z,62.71
2017-04-26T07:21:33.689Z,62.52
2017-04-26T07:21:59.257Z,62.52
2017-04-26T07:22:24.803Z,62.81
2017-04-26T07:22:50.373Z,62.99
2017-04-26T07:23:15.930Z,62.9
2017-04-26T07:23:41.465Z,62.81
2017-04-26T07:24:07.027Z,62.81
2017-04-26T07:24:32.577Z,62.9
2017-04-26T07:24:58.139Z,62.9
2017-04-26T07:25:23.711Z,62.9
2017-04-26T07:25:49.264Z,62.81
2017-04-26T07:26:14.801Z,62.81
2017-04-26T07:26:40.340Z,62.81
2017-04-26T07:27:05.884Z,62.9
2017-04-26T07:27:31.432Z,62.9
2017-04-26T07:27:57.002Z,62.87
2017-04-26T07:28:22.541Z,62.81
2017-04-26T07:28:48.093Z,62.9
2017-04-26T07:29:13.674Z,62.9
2017-04-26T07:29:39.221Z,62.81
2017-04-26T07:30:04.977Z,62.81
2017-04-26T07:30:30.541Z,62.81
2017-04-26T07:30:56.120Z,62.81
2017-04-26T07:31:21.671Z,62.71
2017-04-26T07:31:47.229Z,62.9
2017-04-26T07:32:12.779Z,62.81
2017-04-26T07:32:38.367Z,62.9
2017-04-26T07:33:03.900Z,62.9
2017-04-26T07:33:29.490Z,62.9
2017-04-26T07:33:55.046Z,62.81
2017-04-26T07:34:20.600Z,62.81
2017-04-26T07:34:46.182Z,62.99
2017-04-26T07:35:11.753Z,62.99
2017-04-26T07:35:37.312Z,62.99
2017-04-26T07:36:02.881Z,62.99
2017-04-26T07:36:28.451Z,62.9
2017-04-26T07:36:54.035Z,62.71
2017-04-26T07:37:19.656Z,62.9
2017-04-26T07:37:45.267Z,62.77
2017-04-26T07:38:10.823Z,62.81
2017-04-26T07:38:36.441Z,62.81
2017-04-26T07:39:02.087Z,62.9
2017-04-26T07:39:27.644Z,62.77
2017-04-26T07:39:53.303Z,62.81
2017-04-26T07:40:18.883Z,62.81
2017-04-26T07:40:44.446Z,62.77
2017-04-26T07:41:10.027Z,62.71
2017-04-26T07:41:35.606Z,62.9
2017-04-26T07:42:01.156Z,62.96
2017-04-26T07:42:26.750Z,62.71
2017-04-26T07:42:52.368Z,62.9
2017-04-26T07:43:17.911Z,62.81
2017-04-26T07:43:43.466Z,62.71
2017-04-26T07:44:09.016Z,62.81
2017-04-26T07:44:34.567Z,62.87
2017-04-26T07:45:00.142Z,62.77
2017-04-26T07:45:25.701Z,62.87
2017-04-26T07:45:51.281Z,62.9
2017-04-26T07:46:16.864Z,62.81
2017-04-26T07:46:42.473Z,62.9
2017-04-26T07:47:08.033Z,62.99
2017-04-26T07:47:33.609Z,62.81
2017-04-26T07:47:59.161Z,62.61
2017-04-26T07:48:24.742Z,62.42
2017-04-26T07:48:50.299Z,62.32
2017-04-26T07:49:15.890Z,62.42
2017-04-26T07:49:41.453Z,62.99
2017-04-26T07:50:06.997Z,62.42
2017-04-26T07:50:32.560Z,63.19
2017-04-26T07:50:58.110Z,62.99
2017-04-26T07:51:23.691Z,63.19
2017-04-26T07:51:49.239Z,62.61
2017-04-26T07:52:14.790Z,62.42
2017-04-26T07:52:40.350Z,62.61
2017-04-26T07:53:05.912Z,62.42
2017-04-26T07:53:31.502Z,62.99
2017-04-26T07:53:57.130Z,62.52
2017-04-26T07:54:22.668Z,62.96
2017-04-26T07:54:48.224Z,62.71
2017-04-26T07:55:13.782Z,62.99
2017-04-26T07:55:39.333Z,62.71
2017-04-26T07:56:04.923Z,63.19
2017-04-26T07:56:30.477Z,63.19
2017-04-26T07:56:56.028Z,62.58
2017-04-26T07:57:21.592Z,62.99
2017-04-26T07:57:47.134Z,62.68
2017-04-26T07:58:12.672Z,62.71
2017-04-26T07:58:38.297Z,63.19
2017-04-26T07:59:03.841Z,62.58
2017-04-26T07:59:29.514Z,62.42
2017-04-26T07:59:55.082Z,62.61
2017-04-26T08:00:20.622Z,62.61
2017-04-26T08:00:46.217Z,62.61
2017-04-26T08:01:11.782Z,62.52
2017-04-26T08:01:37.446Z,62.61
2017-04-26T08:02:03.000Z,62.13
2017-04-26T08:02:28.545Z,62.61
2017-04-26T08:02:54.098Z,62.61
2017-04-26T08:03:19.647Z,62.42
2017-04-26T08:03:45.209Z,62.32
2017-04-26T08:04:10.744Z,62.23
2017-04-26T08:04:36.291Z,62.42
2017-04-26T08:05:01.844Z,62.61
2017-04-26T08:05:27.449Z,62.32
2017-04-26T08:05:52.992Z,62.39
2017-04-26T08:06:18.550Z,62.58
2017-04-26T08:06:44.141Z,62.58
2017-04-26T08:07:09.720Z,62.61
2017-04-26T08:07:35.255Z,62.61
2017-04-26T08:08:00.815Z,62.32
2017-04-26T08:08:26.363Z,62.52
2017-04-26T08:08:51.923Z,63.19
2017-04-26T08:09:17.528Z,62.32
2017-04-26T08:09:43.168Z,62.58
2017-04-26T08:10:08.758Z,62.61
2017-04-26T08:10:34.314Z,62.52
2017-04-26T08:10:59.873Z,63.19
2017-04-26T08:11:25.440Z,62.68
2017-04-26T08:11:50.980Z,62.81
2017-04-26T08:12:16.734Z,62.61
2017-04-26T08:12:42.284Z,63.19
2017-04-26T08:13:07.837Z,62.77
2017-04-26T08:13:33.392Z,62.96
2017-04-26T08:13:58.958Z,62.9
2017-04-26T08:14:24.565Z,62.99
2017-04-26T08:14:50.139Z,62.9
2017-04-26T08:15:15.716Z,62.9
2017-04-26T08:15:41.272Z,62.99
2017-04-26T08:16:06.972Z,62.71
2017-04-26T08:16:32.531Z,62.96
2017-04-26T08:16:58.084Z,62.81
2017-04-26T08:17:23.691Z,62.96
2017-04-26T08:17:49.273Z,62.61
2017-04-26T08:18:14.833Z,62.61
2017-04-26T08:18:40.383Z,62.52
2017-04-26T08:19:05.958Z,62.61
2017-04-26T08:19:31.514Z,62.29
2017-04-26T08:19:57.121Z,62.42
2017-04-26T08:20:22.685Z,62.42
2017-04-26T08:20:48.292Z,62.58
2017-04-26T08:21:13.914Z,62.81
2017-04-26T08:21:39.464Z,62.48
2017-04-26T08:22:05.015Z,63.19
2017-04-26T08:22:30.566Z,62.48
2017-04-26T08:22:56.121Z,62.42
2017-04-26T08:23:21.688Z,62.58
2017-04-26T08:23:47.236Z,62.48
2017-04-26T08:24:12.803Z,62.52
2017-04-26T08:24:38.375Z,62.61
2017-04-26T08:25:04.011Z,62.39
2017-04-26T08:25:29.574Z,62.52
2017-04-26T08:25:55.134Z,62.99
2017-04-26T08:26:20.674Z,62.71
2017-04-26T08:26:46.224Z,62.9
2017-04-26T08:27:11.873Z,62.71
2017-04-26T08:27:37.441Z,62.99
2017-04-26T08:28:02.981Z,62.9
2017-04-26T08:28:28.684Z,62.96
2017-04-26T08:28:54.243Z,62.71
2017-04-26T08:29:19.805Z,62.68
2017-04-26T08:29:45.362Z,62.96
2017-04-26T08:30:10.940Z,63.16
2017-04-26T08:30:36.504Z,62.61
2017-04-26T08:31:02.081Z,62.71
2017-04-26T08:31:27.632Z,62.9
2017-04-26T08:31:53.257Z,62.42
2017-04-26T08:32:18.815Z,62.77
2017-04-26T08:32:44.363Z,62.48
2017-04-26T08:33:09.943Z,62.52
2017-04-26T08:33:35.545Z,62.96
2017-04-26T08:34:01.102Z,62.52
2017-04-26T08:34:26.666Z,62.52
2017-04-26T08:34:52.224Z,62.99
2017-04-26T08:35:17.774Z,62.71
2017-04-26T08:35:43.328Z,62.71
2017-04-26T08:36:08.974Z,62.77
2017-04-26T08:36:34.541Z,62.99
2017-04-26T08:37:00.112Z,62.99
2017-04-26T08:37:25.694Z,62.96